ブラチスラヴァ の空港の天気 - METARとTAF

ブラチスラヴァ空港 ( LZIB / BTS ) - スロバキア ブラチスラヴァ
飛行場実況気象(Metar)
観測時間11/30 12:30 CET (11/30 11:30 UTC)
風向・風速東南東 3m/s
視程10km以上
天気現象
少しの雲 雲底高度 910m
気温4℃
湿度65%
気圧1027hPa
METARLZIB 301130Z 12005KT 090V150 9999 FEW030 04/M02 Q1027 NOSIG
過去の天気等 Google飛行場航空写真 Wunderground天気予報

過去48時間のMETAR

飛行場予報(TAF)
発表時間: 11/30 12:00 CET (11/30 11:00 UTC)
予報対象時間: 30日13時 CET ~ 1日13時 CET
風向・風速東 3m/s
視程10km以上
全天の4割程度の雲 雲底高度 910m
30日13時 CET ~ 30日15時 CET に徐々に
風向・風速南東 2m/s
1日0時 CET ~ 1日2時 CET に徐々に
風向・風速東南東 5m/s
全天の8割程度の雲 雲底高度 370m
1日0時 CET ~ 1日9時 CET に一時的に
視程4000m
天気現象もや
全天の8割程度の雲 雲底高度 240m
1日9時 CET ~ 1日13時 CET に一時的に
風向・風速南東 8m/s
TAF LZIB 301100Z 3012/0112 09005KT 9999 SCT030
BECMG 3012/3014 13004KT
BECMG 3023/0101 11010KT BKN012
TEMPO 3023/0108 4000 BR BKN008
TEMPO 0108/0112 13015KT